Time;durP1;ratioP1;P1;durP2;ratioP2;P2;SDS_P1;SDS_P2;PMS_P1;PMS_P2;Temp;Humidity;BMP_temperature;BMP_pressure;BME280_temperature;BME280_humidity;BME280_pressure;Samples;Min_cycle;Max_cycle;Signal;HPM_P1;HPM_P2
2023/09/15 00:01:41;;;;;;;4.10;3.80;;;;;;;;;;5050895;28;20209;-72
2023/09/15 00:04:08;;;;;;;4.00;3.70;;;;;;;;;;5050977;28;20201;-72
2023/09/15 00:06:35;;;;;;;4.40;4.03;;;;;;;;;;5054029;28;20652;-72
2023/09/15 00:09:02;;;;;;;5.00;4.10;;;;;;;;;;5054613;28;20232;-72
2023/09/15 00:11:39;;;;;;;3.90;3.60;;;;;;;;;;5054205;28;20208;-72
2023/09/15 00:14:06;;;;;;;3.67;3.45;;;;;;;;;;5054908;28;20228;-72
2023/09/15 00:16:32;;;;;;;4.00;3.53;;;;;;;;;;5053983;28;20609;-72
2023/09/15 00:18:58;;;;;;;4.72;3.65;;;;;;;;;;5054308;28;20209;-72
2023/09/15 00:21:24;;;;;;;4.35;4.05;;;;;;;;;;5054182;28;20228;-72
2023/09/15 00:23:51;;;;;;;3.80;3.50;;;;;;;;;;5054178;28;20212;-72
2023/09/15 00:26:20;;;;;;;3.45;3.30;;;;;;;;;;5053804;28;20732;-72
2023/09/15 00:28:48;;;;;;;4.03;3.40;;;;;;;;;;5054363;28;20197;-72
2023/09/15 00:31:14;;;;;;;3.40;3.20;;;;;;;;;;5054202;28;20193;-72
2023/09/15 00:33:40;;;;;;;3.42;3.22;;;;;;;;;;5054181;28;20205;-72
2023/09/15 00:36:07;;;;;;;4.40;4.00;;;;;;;;;;5053602;28;20225;-72
2023/09/15 00:38:34;;;;;;;6.03;3.85;;;;;;;;;;5053725;28;20235;-72
2023/09/15 00:41:01;;;;;;;4.10;3.75;;;;;;;;;;5054169;28;20225;-72
2023/09/15 00:43:27;;;;;;;4.10;3.70;;;;;;;;;;5054044;28;20227;-72
2023/09/15 00:45:55;;;;;;;5.25;4.03;;;;;;;;;;5053591;28;20224;-71
2023/09/15 00:48:21;;;;;;;4.60;4.10;;;;;;;;;;5053741;28;20674;-71
2023/09/15 00:50:47;;;;;;;5.63;4.03;;;;;;;;;;5053741;28;20201;-71
2023/09/15 00:53:16;;;;;;;4.43;4.03;;;;;;;;;;5053662;28;20576;-71
2023/09/15 00:55:44;;;;;;;5.28;4.10;;;;;;;;;;5045318;28;20220;-71
2023/09/15 00:58:11;;;;;;;4.22;3.92;;;;;;;;;;5053771;28;20224;-71
2023/09/15 01:00:38;;;;;;;4.13;3.83;;;;;;;;;;5053375;28;20702;-71
2023/09/15 01:03:07;;;;;;;3.92;3.63;;;;;;;;;;5053488;28;20205;-71
2023/09/15 01:05:34;;;;;;;4.70;3.90;;;;;;;;;;5052967;28;20217;-71
2023/09/15 01:08:00;;;;;;;3.70;3.45;;;;;;;;;;5053641;28;20197;-71
2023/09/15 01:10:27;;;;;;;3.75;3.45;;;;;;;;;;5053544;28;20255;-71
2023/09/15 01:12:54;;;;;;;3.70;3.28;;;;;;;;;;5053273;28;20198;-71
2023/09/15 01:15:21;;;;;;;4.35;3.83;;;;;;;;;;5053099;28;20229;-71
2023/09/15 01:17:53;;;;;;;6.80;3.83;;;;;;;;;;5052833;28;20205;-72
2023/09/15 01:20:26;;;;;;;4.07;3.30;;;;;;;;;;5052986;28;20232;-72
2023/09/15 01:23:10;;;;;;;4.30;4.00;;;;;;;;;;5053262;28;20556;-71
2023/09/15 01:25:51;;;;;;;4.00;3.60;;;;;;;;;;5052614;28;20224;-71
2023/09/15 01:28:25;;;;;;;3.92;3.70;;;;;;;;;;5053151;28;20205;-71
2023/09/15 01:30:53;;;;;;;4.28;3.65;;;;;;;;;;5046207;28;20193;-71
2023/09/15 01:33:20;;;;;;;3.90;3.70;;;;;;;;;;5053191;28;20259;-72
2023/09/15 01:35:46;;;;;;;3.95;3.70;;;;;;;;;;5053020;28;20254;-71
2023/09/15 01:38:13;;;;;;;4.22;3.55;;;;;;;;;;5052954;28;20208;-71
2023/09/15 01:40:39;;;;;;;4.03;3.63;;;;;;;;;;5052704;28;20228;-71
2023/09/15 01:43:05;;;;;;;4.00;3.80;;;;;;;;;;5052915;28;20205;-71
2023/09/15 01:45:31;;;;;;;3.60;3.40;;;;;;;;;;5052840;28;20239;-71
2023/09/15 01:47:59;;;;;;;3.88;3.50;;;;;;;;;;5052748;28;20197;-71
2023/09/15 01:50:26;;;;;;;4.45;4.07;;;;;;;;;;5052748;28;20197;-71
2023/09/15 01:52:52;;;;;;;3.75;3.53;;;;;;;;;;5052681;28;20193;-72
2023/09/15 01:55:19;;;;;;;3.78;3.50;;;;;;;;;;5052530;28;20220;-72
2023/09/15 01:57:45;;;;;;;3.78;3.42;;;;;;;;;;5052097;28;20201;-72
2023/09/15 02:00:12;;;;;;;4.85;3.28;;;;;;;;;;5052653;28;20221;-72
2023/09/15 02:02:38;;;;;;;3.13;2.92;;;;;;;;;;5052388;28;20208;-72
2023/09/15 02:05:06;;;;;;;3.58;3.28;;;;;;;;;;5052170;28;20747;-72
2023/09/15 02:07:33;;;;;;;3.58;3.28;;;;;;;;;;5052040;28;20216;-71
2023/09/15 02:09:59;;;;;;;4.05;3.17;;;;;;;;;;5052283;28;20189;-71
2023/09/15 02:12:25;;;;;;;4.10;3.63;;;;;;;;;;5052133;28;20221;-71
2023/09/15 02:14:51;;;;;;;3.78;3.33;;;;;;;;;;5052279;28;20221;-71
2023/09/15 02:17:18;;;;;;;4.90;3.50;;;;;;;;;;5052007;28;20204;-71
2023/09/15 02:19:46;;;;;;;4.20;3.72;;;;;;;;;;5051771;28;20297;-71
2023/09/15 02:22:14;;;;;;;5.75;3.45;;;;;;;;;;5051953;28;20580;-72
2023/09/15 02:24:40;;;;;;;3.70;3.40;;;;;;;;;;5051684;28;20209;-72
2023/09/15 02:27:07;;;;;;;4.65;3.75;;;;;;;;;;5051649;28;20197;-72
2023/09/15 02:29:33;;;;;;;3.53;3.33;;;;;;;;;;5051766;28;20276;-71
2023/09/15 02:32:00;;;;;;;3.72;3.42;;;;;;;;;;5052090;28;20201;-71
2023/09/15 02:34:26;;;;;;;3.72;3.42;;;;;;;;;;5051658;28;20709;-71
2023/09/15 02:36:52;;;;;;;4.28;3.25;;;;;;;;;;5051482;28;20224;-71
2023/09/15 02:39:20;;;;;;;3.92;3.40;;;;;;;;;;5051683;28;20205;-71
2023/09/15 02:41:46;;;;;;;6.50;4.18;;;;;;;;;;5051521;28;20732;-71
2023/09/15 02:44:12;;;;;;;3.42;3.03;;;;;;;;;;5051556;28;20602;-71
2023/09/15 02:46:38;;;;;;;4.00;3.58;;;;;;;;;;5051417;28;20221;-71
2023/09/15 02:49:05;;;;;;;4.25;3.85;;;;;;;;;;5051637;28;20204;-71
2023/09/15 02:51:31;;;;;;;3.70;3.40;;;;;;;;;;5051449;28;20189;-71
2023/09/15 02:53:57;;;;;;;3.42;3.33;;;;;;;;;;5051485;28;20204;-72
2023/09/15 02:56:25;;;;;;;3.55;3.35;;;;;;;;;;5051077;28;20586;-73
2023/09/15 02:58:52;;;;;;;3.95;3.50;;;;;;;;;;5051274;28;20193;-72
2023/09/15 03:01:18;;;;;;;3.83;3.53;;;;;;;;;;5051326;28;20705;-72
2023/09/15 03:03:46;;;;;;;3.60;3.40;;;;;;;;;;5051170;28;20616;-72
2023/09/15 03:06:12;;;;;;;4.47;3.95;;;;;;;;;;5050986;28;20224;-72
2023/09/15 03:08:38;;;;;;;3.72;3.30;;;;;;;;;;5051462;28;20232;-72
2023/09/15 03:11:05;;;;;;;4.03;3.78;;;;;;;;;;5051500;28;20204;-72
2023/09/15 03:13:33;;;;;;;4.10;3.80;;;;;;;;;;5051234;28;20201;-72
2023/09/15 03:16:07;;;;;;;3.65;3.42;;;;;;;;;;5050965;28;20221;-72
2023/09/15 03:18:34;;;;;;;3.97;3.58;;;;;;;;;;5050951;28;20595;-72
2023/09/15 03:21:01;;;;;;;4.38;3.97;;;;;;;;;;5051030;28;20213;-72
2023/09/15 03:23:27;;;;;;;3.60;3.30;;;;;;;;;;5051313;28;20204;-72
2023/09/15 03:25:58;;;;;;;5.93;3.42;;;;;;;;;;5050760;28;20819;-72
2023/09/15 03:28:25;;;;;;;4.25;3.88;;;;;;;;;;5051322;28;20198;-72
2023/09/15 03:30:52;;;;;;;4.10;3.80;;;;;;;;;;5051170;28;20201;-72
2023/09/15 03:33:18;;;;;;;3.38;3.17;;;;;;;;;;5051094;28;20204;-72
2023/09/15 03:35:45;;;;;;;3.53;3.33;;;;;;;;;;5050857;28;20272;-72
2023/09/15 03:38:11;;;;;;;4.18;3.78;;;;;;;;;;5051297;28;20201;-72
2023/09/15 03:40:38;;;;;;;3.80;3.33;;;;;;;;;;5053106;28;20249;-72
2023/09/15 03:43:04;;;;;;;4.65;4.20;;;;;;;;;;5055274;28;20200;-72
2023/09/15 03:45:30;;;;;;;3.88;3.67;;;;;;;;;;5055089;28;20217;-72
2023/09/15 03:47:58;;;;;;;4.38;3.60;;;;;;;;;;5054674;28;20197;-72
2023/09/15 03:50:24;;;;;;;3.70;3.50;;;;;;;;;;5055018;28;20205;-72
2023/09/15 03:52:50;;;;;;;4.00;3.70;;;;;;;;;;5055062;28;20205;-72
2023/09/15 03:55:17;;;;;;;3.85;3.60;;;;;;;;;;5055036;28;20217;-72
2023/09/15 03:57:44;;;;;;;4.32;3.95;;;;;;;;;;5054378;28;20685;-72
2023/09/15 04:00:15;;;;;;;3.75;3.40;;;;;;;;;;5054699;28;20205;-72
2023/09/15 04:02:41;;;;;;;3.90;3.60;;;;;;;;;;5054542;28;20227;-72
2023/09/15 04:05:10;;;;;;;4.07;3.60;;;;;;;;;;5054600;28;20240;-72
2023/09/15 04:07:37;;;;;;;5.35;4.00;;;;;;;;;;5054439;28;20308;-72
2023/09/15 04:10:04;;;;;;;3.70;3.50;;;;;;;;;;5054625;28;20213;-72
2023/09/15 04:12:32;;;;;;;3.83;3.53;;;;;;;;;;5054647;28;20283;-72
2023/09/15 04:14:59;;;;;;;4.05;3.75;;;;;;;;;;5054415;28;20244;-73
2023/09/15 04:17:25;;;;;;;5.30;3.90;;;;;;;;;;5054386;28;20208;-72
2023/09/15 04:19:51;;;;;;;3.97;3.67;;;;;;;;;;5054376;28;20225;-72
2023/09/15 04:22:19;;;;;;;4.03;3.60;;;;;;;;;;5054350;28;20565;-72
2023/09/15 04:24:45;;;;;;;3.78;3.47;;;;;;;;;;5054271;28;20201;-72
2023/09/15 04:27:11;;;;;;;4.90;3.92;;;;;;;;;;5054069;28;20208;-72
2023/09/15 04:29:52;;;;;;;3.95;3.75;;;;;;;;;;5054193;28;20202;-72
2023/09/15 04:32:19;;;;;;;4.32;4.03;;;;;;;;;;5054194;28;20662;-72
2023/09/15 04:34:45;;;;;;;4.13;3.83;;;;;;;;;;5054068;28;20208;-72
2023/09/15 04:37:11;;;;;;;4.20;3.90;;;;;;;;;;5053877;28;20209;-71
2023/09/15 04:39:39;;;;;;;4.35;4.05;;;;;;;;;;5053840;28;20665;-69
2023/09/15 04:42:05;;;;;;;4.18;3.85;;;;;;;;;;5053942;28;20217;-69
2023/09/15 04:44:31;;;;;;;4.60;4.20;;;;;;;;;;5053817;28;20666;-69
2023/09/15 04:46:58;;;;;;;4.57;4.18;;;;;;;;;;5053715;28;20592;-69
2023/09/15 04:49:24;;;;;;;4.40;3.92;;;;;;;;;;5053984;28;20201;-69
2023/09/15 04:51:50;;;;;;;4.57;4.18;;;;;;;;;;5053391;28;20212;-69
2023/09/15 04:54:16;;;;;;;4.35;3.90;;;;;;;;;;5053926;28;20201;-69
2023/09/15 04:56:44;;;;;;;6.95;4.45;;;;;;;;;;5053307;28;20224;-69
2023/09/15 04:59:16;;;;;;;4.28;3.97;;;;;;;;;;5053919;28;20208;-69
2023/09/15 05:01:42;;;;;;;4.47;4.18;;;;;;;;;;5053485;28;20259;-69
2023/09/15 05:04:09;;;;;;;6.65;4.70;;;;;;;;;;5053631;28;20296;-69
2023/09/15 05:06:35;;;;;;;4.18;3.88;;;;;;;;;;5053125;28;20700;-69
2023/09/15 05:09:01;;;;;;;4.63;4.22;;;;;;;;;;5053433;28;20193;-69
2023/09/15 05:11:28;;;;;;;4.07;3.80;;;;;;;;;;5053357;28;20200;-69
2023/09/15 05:13:56;;;;;;;4.30;4.03;;;;;;;;;;5053505;28;20201;-69
2023/09/15 05:16:23;;;;;;;5.05;4.55;;;;;;;;;;5053191;28;20255;-69
2023/09/15 05:18:49;;;;;;;5.50;5.00;;;;;;;;;;5053449;28;20566;-69
2023/09/15 05:21:15;;;;;;;4.80;4.22;;;;;;;;;;5053644;28;20228;-69
2023/09/15 05:23:42;;;;;;;5.50;4.43;;;;;;;;;;5053523;28;20216;-69
2023/09/15 05:26:08;;;;;;;4.53;4.22;;;;;;;;;;5052873;28;20223;-69
2023/09/15 05:28:34;;;;;;;5.90;4.00;;;;;;;;;;5053438;28;20200;-69
2023/09/15 05:31:02;;;;;;;6.72;4.68;;;;;;;;;;5053060;28;20673;-69
2023/09/15 05:33:28;;;;;;;6.07;4.75;;;;;;;;;;5053223;28;20224;-69
2023/09/15 05:35:55;;;;;;;4.57;4.22;;;;;;;;;;5052470;28;20221;-69
2023/09/15 05:38:21;;;;;;;5.03;4.63;;;;;;;;;;5053041;28;20201;-69
2023/09/15 05:40:47;;;;;;;5.47;4.97;;;;;;;;;;5052564;28;20239;-69
2023/09/15 05:43:13;;;;;;;5.15;4.55;;;;;;;;;;5052761;28;20209;-69
2023/09/15 05:45:40;;;;;;;4.60;4.30;;;;;;;;;;5052656;28;20224;-69
2023/09/15 05:48:12;;;;;;;5.35;4.95;;;;;;;;;;5052699;28;20208;-69
2023/09/15 05:50:38;;;;;;;5.25;4.75;;;;;;;;;;5052840;28;20203;-68
2023/09/15 05:53:05;;;;;;;4.82;4.40;;;;;;;;;;5052514;28;20201;-69
2023/09/15 05:55:32;;;;;;;4.72;4.43;;;;;;;;;;5052754;28;20224;-69
2023/09/15 05:57:58;;;;;;;7.22;4.70;;;;;;;;;;5052558;28;20205;-69
2023/09/15 06:00:24;;;;;;;5.80;5.22;;;;;;;;;;5052893;28;20204;-69
2023/09/15 06:02:51;;;;;;;5.53;4.90;;;;;;;;;;5051521;28;20220;-69
2023/09/15 06:05:20;;;;;;;6.40;5.15;;;;;;;;;;5052326;28;20217;-69
2023/09/15 06:07:46;;;;;;;5.80;5.20;;;;;;;;;;5052040;28;20201;-69
2023/09/15 06:10:12;;;;;;;7.25;5.63;;;;;;;;;;5052492;28;20202;-69
2023/09/15 06:12:38;;;;;;;8.25;5.25;;;;;;;;;;5052224;28;20670;-69
2023/09/15 06:15:05;;;;;;;10.77;5.63;;;;;;;;;;5051926;28;20736;-69
2023/09/15 06:17:33;;;;;;;8.60;5.40;;;;;;;;;;5052020;28;20197;-69
2023/09/15 06:20:00;;;;;;;5.03;4.47;;;;;;;;;;5052098;28;20217;-69
2023/09/15 06:22:27;;;;;;;11.90;5.35;;;;;;;;;;5046900;28;20223;-69
2023/09/15 06:24:54;;;;;;;6.45;5.05;;;;;;;;;;5047914;28;20611;-68
2023/09/15 06:27:20;;;;;;;7.30;6.20;;;;;;;;;;5048404;28;20208;-68
2023/09/15 06:29:46;;;;;;;8.57;6.28;;;;;;;;;;5059671;28;20212;-70
2023/09/15 06:32:13;;;;;;;8.95;5.20;;;;;;;;;;5056512;28;20576;-67
2023/09/15 06:34:39;;;;;;;8.18;5.32;;;;;;;;;;5048153;28;20274;-69
2023/09/15 06:37:05;;;;;;;8.60;5.93;;;;;;;;;;5048263;28;20288;-68
2023/09/15 06:39:34;;;;;;;9.63;6.35;;;;;;;;;;5048648;28;20209;-70
2023/09/15 06:42:00;;;;;;;11.05;6.20;;;;;;;;;;5056490;28;20301;-70
2023/09/15 06:44:26;;;;;;;8.50;6.25;;;;;;;;;;5048165;28;20216;-70
2023/09/15 06:46:52;;;;;;;12.52;6.45;;;;;;;;;;5047655;28;20232;-70
2023/09/15 06:49:21;;;;;;;11.73;7.75;;;;;;;;;;5048231;28;20224;-70
2023/09/15 06:51:47;;;;;;;19.90;7.03;;;;;;;;;;5048329;28;20345;-70
2023/09/15 06:54:14;;;;;;;12.15;7.10;;;;;;;;;;5048067;28;20673;-70
2023/09/15 06:56:41;;;;;;;10.98;7.07;;;;;;;;;;5047710;28;20642;-68
2023/09/15 06:59:07;;;;;;;8.77;6.80;;;;;;;;;;5049302;28;20216;-69
2023/09/15 07:01:34;;;;;;;8.02;7.32;;;;;;;;;;5047852;28;20240;-70
2023/09/15 07:04:00;;;;;;;13.00;7.38;;;;;;;;;;5047686;28;20215;-69
2023/09/15 07:06:27;;;;;;;8.20;7.20;;;;;;;;;;5049087;28;20228;-70
2023/09/15 07:08:53;;;;;;;15.55;7.35;;;;;;;;;;5046873;28;20571;-71
2023/09/15 07:11:19;;;;;;;8.60;7.25;;;;;;;;;;5051527;28;20515;-70
2023/09/15 07:13:47;;;;;;;9.30;7.35;;;;;;;;;;5047679;28;20217;-71
2023/09/15 07:16:13;;;;;;;7.90;7.10;;;;;;;;;;5048973;28;20220;-71
2023/09/15 07:18:39;;;;;;;14.65;7.65;;;;;;;;;;5048369;28;20216;-69
2023/09/15 07:21:06;;;;;;;8.98;7.53;;;;;;;;;;5047988;28;20220;-69
2023/09/15 07:23:32;;;;;;;8.00;7.15;;;;;;;;;;5048118;28;20228;-67
2023/09/15 07:25:59;;;;;;;9.20;6.53;;;;;;;;;;5046802;28;20729;-68
2023/09/15 07:28:25;;;;;;;10.00;7.63;;;;;;;;;;5047866;28;20200;-71
2023/09/15 07:30:53;;;;;;;11.90;7.55;;;;;;;;;;5047028;28;20220;-72
2023/09/15 07:33:19;;;;;;;9.68;7.63;;;;;;;;;;5045869;28;20201;-71
2023/09/15 07:35:45;;;;;;;10.02;7.82;;;;;;;;;;5046255;28;20229;-69
2023/09/15 07:38:11;;;;;;;15.57;7.55;;;;;;;;;;5046814;28;20677;-71
2023/09/15 07:40:38;;;;;;;11.68;7.88;;;;;;;;;;5047241;28;20255;-70
2023/09/15 07:43:04;;;;;;;9.93;8.00;;;;;;;;;;5046782;28;20709;-69
2023/09/15 07:45:30;;;;;;;7.82;7.03;;;;;;;;;;5046460;28;20251;-69
2023/09/15 07:47:58;;;;;;;12.85;8.07;;;;;;;;;;5046778;28;20212;-69
2023/09/15 07:50:24;;;;;;;11.50;7.20;;;;;;;;;;5049864;28;20224;-70
2023/09/15 07:52:50;;;;;;;8.55;7.53;;;;;;;;;;5047056;28;20205;-69
2023/09/15 07:55:16;;;;;;;9.77;7.43;;;;;;;;;;5049886;28;20294;-69
2023/09/15 07:57:43;;;;;;;10.52;7.03;;;;;;;;;;5052154;28;20259;-69
2023/09/15 08:00:11;;;;;;;11.23;7.75;;;;;;;;;;5047996;28;20674;-72
2023/09/15 08:02:37;;;;;;;14.43;8.38;;;;;;;;;;5047224;28;20279;-74
2023/09/15 08:05:05;;;;;;;9.10;7.53;;;;;;;;;;5047440;28;20272;-72
2023/09/15 08:07:31;;;;;;;13.27;8.05;;;;;;;;;;5050458;28;20609;-72
2023/09/15 08:10:03;;;;;;;9.52;7.75;;;;;;;;;;5051632;28;20217;-74
2023/09/15 08:12:30;;;;;;;11.57;7.65;;;;;;;;;;5044418;28;20207;-73
2023/09/15 08:14:56;;;;;;;9.73;7.45;;;;;;;;;;5047373;28;20236;-72
2023/09/15 08:17:22;;;;;;;11.00;7.75;;;;;;;;;;5047709;28;20216;-72
2023/09/15 08:19:48;;;;;;;11.90;7.88;;;;;;;;;;5046484;28;20221;-70
2023/09/15 08:22:16;;;;;;;9.02;8.13;;;;;;;;;;5046761;28;20225;-69
2023/09/15 08:24:43;;;;;;;7.70;6.90;;;;;;;;;;5050207;28;20299;-68
2023/09/15 08:27:09;;;;;;;7.63;6.70;;;;;;;;;;5050832;28;20221;-68
2023/09/15 08:29:35;;;;;;;8.95;6.95;;;;;;;;;;5050048;28;20795;-69
2023/09/15 08:32:01;;;;;;;7.68;6.97;;;;;;;;;;5050321;28;20236;-68
2023/09/15 08:34:28;;;;;;;8.55;7.30;;;;;;;;;;5053378;28;20216;-69
2023/09/15 08:36:54;;;;;;;10.52;7.07;;;;;;;;;;5050168;28;20319;-68
2023/09/15 08:39:21;;;;;;;9.13;6.68;;;;;;;;;;5050627;28;20208;-69
2023/09/15 08:41:50;;;;;;;9.05;6.60;;;;;;;;;;5050074;28;20232;-68
2023/09/15 08:44:17;;;;;;;9.52;6.75;;;;;;;;;;5051002;28;20213;-68
2023/09/15 08:46:45;;;;;;;8.10;6.95;;;;;;;;;;5058370;28;20232;-68
2023/09/15 08:49:12;;;;;;;10.13;7.03;;;;;;;;;;5050221;28;20208;-70
2023/09/15 08:51:39;;;;;;;6.85;6.25;;;;;;;;;;5055628;28;20634;-67
2023/09/15 08:54:05;;;;;;;10.65;6.82;;;;;;;;;;5052841;28;20259;-70
2023/09/15 08:56:33;;;;;;;7.90;7.13;;;;;;;;;;5049155;28;20232;-67
2023/09/15 08:59:00;;;;;;;7.15;6.53;;;;;;;;;;5049591;28;20213;-67
2023/09/15 09:01:26;;;;;;;9.20;5.90;;;;;;;;;;5051734;28;20205;-68
2023/09/15 09:03:53;;;;;;;7.13;6.32;;;;;;;;;;5049377;28;20232;-70
2023/09/15 09:06:20;;;;;;;6.75;5.72;;;;;;;;;;5049469;28;20236;-68
2023/09/15 09:08:47;;;;;;;8.35;5.90;;;;;;;;;;5049647;28;20208;-66
2023/09/15 09:11:14;;;;;;;11.10;6.32;;;;;;;;;;5049771;28;20209;-66
2023/09/15 09:13:42;;;;;;;7.43;6.72;;;;;;;;;;5050459;28;20208;-66
2023/09/15 09:16:10;;;;;;;10.43;5.70;;;;;;;;;;5057892;28;20256;-68
2023/09/15 09:18:36;;;;;;;9.85;6.38;;;;;;;;;;5056319;28;20638;-69
2023/09/15 09:21:03;;;;;;;7.97;6.30;;;;;;;;;;5049544;28;20209;-67
2023/09/15 09:23:29;;;;;;;10.10;6.60;;;;;;;;;;5060996;28;20227;-70
2023/09/15 09:25:56;;;;;;;7.80;6.50;;;;;;;;;;5053667;28;20237;-68
2023/09/15 09:28:22;;;;;;;7.50;5.97;;;;;;;;;;5049502;28;20220;-66
2023/09/15 09:30:53;;;;;;;7.32;6.45;;;;;;;;;;5063397;28;20212;-64
2023/09/15 09:33:20;;;;;;;7.70;6.05;;;;;;;;;;5049657;28;20208;-66
2023/09/15 09:35:46;;;;;;;11.18;6.20;;;;;;;;;;5048938;28;20241;-69
2023/09/15 09:38:13;;;;;;;11.82;6.63;;;;;;;;;;5048665;28;20665;-70
2023/09/15 09:40:40;;;;;;;6.97;6.35;;;;;;;;;;5049539;28;20212;-69
2023/09/15 09:43:06;;;;;;;8.57;6.30;;;;;;;;;;5051517;28;20220;-67
2023/09/15 09:45:32;;;;;;;8.00;6.38;;;;;;;;;;5049336;28;20227;-68
2023/09/15 09:48:01;;;;;;;9.95;5.80;;;;;;;;;;5048749;28;20846;-68
2023/09/15 09:50:27;;;;;;;8.35;6.00;;;;;;;;;;5049142;28;20243;-68
2023/09/15 09:52:54;;;;;;;7.57;5.75;;;;;;;;;;5049232;28;20207;-67
2023/09/15 09:55:21;;;;;;;9.50;6.32;;;;;;;;;;5047992;28;20459;-74
2023/09/15 09:57:47;;;;;;;5.63;5.07;;;;;;;;;;5054240;28;20218;-74
2023/09/15 10:00:18;;;;;;;6.55;5.20;;;;;;;;;;5059230;28;20261;-73
2023/09/15 10:02:45;;;;;;;7.88;5.78;;;;;;;;;;5053875;28;20651;-73
2023/09/15 10:05:12;;;;;;;11.70;5.57;;;;;;;;;;5051523;28;20243;-75
2023/09/15 10:07:38;;;;;;;8.73;5.40;;;;;;;;;;5048467;28;20208;-74
2023/09/15 10:10:06;;;;;;;7.65;5.28;;;;;;;;;;5057124;28;20763;-74
2023/09/15 10:12:32;;;;;;;6.90;4.47;;;;;;;;;;5048839;28;20209;-74
2023/09/15 10:14:59;;;;;;;6.88;5.13;;;;;;;;;;5048345;28;20228;-73
2023/09/15 10:17:26;;;;;;;8.07;5.40;;;;;;;;;;5054700;28;20262;-73
2023/09/15 10:19:53;;;;;;;6.25;4.90;;;;;;;;;;5055774;28;20209;-73
2023/09/15 10:22:21;;;;;;;7.05;4.38;;;;;;;;;;5050462;28;20208;-74
2023/09/15 10:24:54;;;;;;;6.35;4.45;;;;;;;;;;5055379;28;20212;-75
2023/09/15 10:27:21;;;;;;;5.63;4.63;;;;;;;;;;5048111;28;20219;-73
2023/09/15 10:29:47;;;;;;;5.07;3.67;;;;;;;;;;5049366;28;20227;-73
2023/09/15 10:32:16;;;;;;;5.85;4.35;;;;;;;;;;5048136;28;20624;-74
2023/09/15 10:34:43;;;;;;;4.22;3.85;;;;;;;;;;5048190;28;20212;-72
2023/09/15 10:37:10;;;;;;;4.07;3.85;;;;;;;;;;5053764;28;20208;-74
2023/09/15 10:39:38;;;;;;;3.95;3.75;;;;;;;;;;5048089;28;20234;-73
2023/09/15 10:42:08;;;;;;;4.25;3.95;;;;;;;;;;5049029;28;20640;-72
2023/09/15 10:44:34;;;;;;;4.32;3.40;;;;;;;;;;5047157;28;20220;-72
2023/09/15 10:47:01;;;;;;;3.65;3.33;;;;;;;;;;5055781;28;20673;-72
2023/09/15 10:49:27;;;;;;;4.22;3.78;;;;;;;;;;5047935;28;20219;-72
2023/09/15 10:51:54;;;;;;;4.75;4.35;;;;;;;;;;5054614;28;20227;-73
2023/09/15 10:54:20;;;;;;;4.95;3.70;;;;;;;;;;5048025;28;20639;-74
2023/09/15 10:56:48;;;;;;;6.78;3.65;;;;;;;;;;5047921;28;20235;-74
2023/09/15 10:59:14;;;;;;;3.80;3.40;;;;;;;;;;5056374;28;20213;-74
2023/09/15 11:01:43;;;;;;;4.50;3.45;;;;;;;;;;5049374;28;20208;-74
2023/09/15 11:04:11;;;;;;;3.72;3.53;;;;;;;;;;5047613;28;20235;-75
2023/09/15 11:06:37;;;;;;;3.42;3.10;;;;;;;;;;5047064;28;20231;-72
2023/09/15 11:09:05;;;;;;;3.47;3.25;;;;;;;;;;5047630;28;20220;-73
2023/09/15 11:11:31;;;;;;;3.25;3.10;;;;;;;;;;5049837;28;20222;-74
2023/09/15 11:14:01;;;;;;;3.42;3.33;;;;;;;;;;5047441;28;20278;-74
2023/09/15 11:16:28;;;;;;;5.72;3.53;;;;;;;;;;5047159;28;20859;-74
2023/09/15 11:18:56;;;;;;;3.47;3.20;;;;;;;;;;5046953;28;20212;-72
2023/09/15 11:21:23;;;;;;;3.47;3.38;;;;;;;;;;5055914;28;20678;-73
2023/09/15 11:23:49;;;;;;;3.28;3.05;;;;;;;;;;5051902;28;20227;-73
2023/09/15 11:26:15;;;;;;;3.28;3.05;;;;;;;;;;5050989;28;20251;-72
2023/09/15 11:28:42;;;;;;;3.30;3.10;;;;;;;;;;5047461;28;20220;-72
2023/09/15 11:31:10;;;;;;;3.15;3.05;;;;;;;;;;5047688;28;20299;-72
2023/09/15 11:33:37;;;;;;;3.72;3.47;;;;;;;;;;5047421;28;20208;-73
2023/09/15 11:36:03;;;;;;;3.22;3.13;;;;;;;;;;5051849;28;20644;-71
2023/09/15 11:38:30;;;;;;;3.45;3.22;;;;;;;;;;5047661;28;20212;-72
2023/09/15 11:40:57;;;;;;;4.18;3.10;;;;;;;;;;5047195;28;20247;-73
2023/09/15 11:43:23;;;;;;;3.60;3.30;;;;;;;;;;5047339;28;20577;-73
2023/09/15 11:45:50;;;;;;;3.28;3.17;;;;;;;;;;5053167;28;20243;-73
2023/09/15 11:48:18;;;;;;;3.55;3.03;;;;;;;;;;5047233;28;20212;-72
2023/09/15 11:50:44;;;;;;;3.15;2.50;;;;;;;;;;5047088;28;20602;-73
2023/09/15 11:53:10;;;;;;;2.55;2.35;;;;;;;;;;5047697;28;20224;-72
2023/09/15 11:55:37;;;;;;;2.42;2.33;;;;;;;;;;5046739;28;20236;-73
2023/09/15 11:58:03;;;;;;;2.47;2.42;;;;;;;;;;5049288;28;20686;-74
2023/09/15 12:00:31;;;;;;;2.35;2.35;;;;;;;;;;5047968;28;20704;-74
2023/09/15 12:02:58;;;;;;;4.00;2.75;;;;;;;;;;5052980;28;20215;-73
2023/09/15 12:05:26;;;;;;;2.60;2.50;;;;;;;;;;5051046;28;20231;-73
2023/09/15 12:07:52;;;;;;;3.45;3.25;;;;;;;;;;5056659;28;20205;-72
2023/09/15 12:10:19;;;;;;;3.42;3.25;;;;;;;;;;5051724;28;20228;-73
2023/09/15 12:12:46;;;;;;;2.83;2.58;;;;;;;;;;5059359;28;20205;-73
2023/09/15 12:15:12;;;;;;;4.97;3.10;;;;;;;;;;5051467;28;20229;-73
2023/09/15 12:17:41;;;;;;;4.57;3.33;;;;;;;;;;5051611;28;20200;-73
2023/09/15 12:20:07;;;;;;;3.25;3.13;;;;;;;;;;5052246;28;20577;-73
2023/09/15 12:22:38;;;;;;;3.92;3.72;;;;;;;;;;5050736;28;20205;-73
2023/09/15 12:25:05;;;;;;;3.80;3.50;;;;;;;;;;5050438;28;20228;-71
2023/09/15 12:27:32;;;;;;;3.85;3.33;;;;;;;;;;5051260;28;20204;-72
2023/09/15 12:30:02;;;;;;;4.00;3.80;;;;;;;;;;5059122;28;20568;-73
2023/09/15 12:32:31;;;;;;;3.97;3.78;;;;;;;;;;5051649;28;20204;-72
2023/09/15 12:34:57;;;;;;;4.38;3.70;;;;;;;;;;5050662;28;20225;-73
2023/09/15 12:37:25;;;;;;;3.88;3.58;;;;;;;;;;5057084;28;20200;-72
2023/09/15 12:39:53;;;;;;;3.50;3.28;;;;;;;;;;5053051;28;20213;-72
2023/09/15 12:42:19;;;;;;;3.30;3.10;;;;;;;;;;5050477;28;20211;-72
2023/09/15 12:44:46;;;;;;;4.57;3.78;;;;;;;;;;5049375;28;20229;-71
2023/09/15 12:47:12;;;;;;;4.43;3.85;;;;;;;;;;5056363;28;20239;-73
2023/09/15 12:49:38;;;;;;;4.43;4.07;;;;;;;;;;5053330;28;20207;-71
2023/09/15 12:52:05;;;;;;;4.45;4.15;;;;;;;;;;5057078;28;20592;-72
2023/09/15 12:54:31;;;;;;;6.82;3.65;;;;;;;;;;5049882;28;20205;-73
2023/09/15 12:56:59;;;;;;;4.10;3.80;;;;;;;;;;5054476;28;20220;-74
2023/09/15 12:59:25;;;;;;;4.38;4.03;;;;;;;;;;5049986;28;20539;-75
2023/09/15 13:01:51;;;;;;;4.22;3.85;;;;;;;;;;5049551;28;20235;-74
2023/09/15 13:04:19;;;;;;;4.53;4.05;;;;;;;;;;5059966;28;20232;-74
2023/09/15 13:06:46;;;;;;;5.28;3.78;;;;;;;;;;5049683;28;20286;-74
2023/09/15 13:09:12;;;;;;;4.43;4.03;;;;;;;;;;5059133;28;20207;-74
2023/09/15 13:11:38;;;;;;;4.25;3.95;;;;;;;;;;5051955;28;20236;-74
2023/09/15 13:14:06;;;;;;;4.72;4.38;;;;;;;;;;5049785;28;20204;-74
2023/09/15 13:16:32;;;;;;;4.18;3.80;;;;;;;;;;5049379;28;20699;-75
2023/09/15 13:18:59;;;;;;;4.20;4.00;;;;;;;;;;5050632;28;20212;-73
2023/09/15 13:21:25;;;;;;;3.83;3.63;;;;;;;;;;5060948;28;20235;-74
2023/09/15 13:23:52;;;;;;;4.97;4.68;;;;;;;;;;5067183;28;20250;-75
2023/09/15 13:26:18;;;;;;;4.20;3.95;;;;;;;;;;5067549;28;20225;-74
2023/09/15 13:28:44;;;;;;;4.80;4.47;;;;;;;;;;5049557;28;20288;-74
2023/09/15 13:31:12;;;;;;;4.68;4.05;;;;;;;;;;5049287;28;20215;-74
2023/09/15 13:33:39;;;;;;;4.28;3.75;;;;;;;;;;5050620;28;20228;-74
2023/09/15 13:36:05;;;;;;;4.70;4.22;;;;;;;;;;5055709;28;20723;-74
2023/09/15 13:38:32;;;;;;;4.05;3.65;;;;;;;;;;5049253;28;20227;-75
2023/09/15 13:40:58;;;;;;;5.10;4.70;;;;;;;;;;5049090;28;20208;-74
2023/09/15 13:43:24;;;;;;;4.35;3.97;;;;;;;;;;5048995;28;20216;-75
2023/09/15 13:45:50;;;;;;;4.78;4.45;;;;;;;;;;5056088;28;20228;-75
2023/09/15 13:48:18;;;;;;;4.63;4.10;;;;;;;;;;5057593;28;20266;-75
2023/09/15 13:50:45;;;;;;;4.30;3.85;;;;;;;;;;5048849;28;20219;-75
2023/09/15 13:53:11;;;;;;;3.92;3.63;;;;;;;;;;5049230;28;20209;-75
2023/09/15 13:55:37;;;;;;;3.58;3.47;;;;;;;;;;5049714;28;20228;-75
2023/09/15 13:58:04;;;;;;;4.57;4.18;;;;;;;;;;5061206;28;20697;-75
2023/09/15 14:00:31;;;;;;;4.40;4.10;;;;;;;;;;5047340;28;20205;-75
2023/09/15 14:02:57;;;;;;;4.70;4.28;;;;;;;;;;5057177;28;20755;-74
2023/09/15 14:05:24;;;;;;;4.40;4.18;;;;;;;;;;5048633;28;20227;-75
2023/09/15 14:07:51;;;;;;;4.57;4.18;;;;;;;;;;5048778;28;20220;-75
2023/09/15 14:10:17;;;;;;;4.40;4.10;;;;;;;;;;5049360;28;20688;-75
2023/09/15 14:12:44;;;;;;;4.38;4.07;;;;;;;;;;5057266;28;20216;-74
2023/09/15 14:15:11;;;;;;;4.40;4.20;;;;;;;;;;5048939;28;20771;-76
2023/09/15 14:17:37;;;;;;;5.40;4.20;;;;;;;;;;5049542;28;20231;-75
2023/09/15 14:20:04;;;;;;;3.85;3.65;;;;;;;;;;5056959;28;20205;-75
2023/09/15 14:22:31;;;;;;;4.63;4.32;;;;;;;;;;5049315;28;20236;-75
2023/09/15 14:24:58;;;;;;;6.03;4.53;;;;;;;;;;5049227;28;20462;-73
2023/09/15 14:27:25;;;;;;;4.65;4.35;;;;;;;;;;5051788;28;20196;-73
2023/09/15 14:29:51;;;;;;;6.72;4.10;;;;;;;;;;5050285;28;20222;-73
2023/09/15 14:32:17;;;;;;;6.25;4.82;;;;;;;;;;5052686;28;20204;-73
2023/09/15 14:34:44;;;;;;;6.15;4.57;;;;;;;;;;5051242;28;20687;-73
2023/09/15 14:37:10;;;;;;;4.00;3.80;;;;;;;;;;5051190;28;20196;-73
2023/09/15 14:39:38;;;;;;;4.60;4.20;;;;;;;;;;5051527;28;20669;-73